首页
METAR-TAF:

METAR-TAF

机场 :

澤西島,

纬度: 49-13N, 经度: 002-12W, 海拔: 84米

当前天气观测

该预报发布于46分钟前的22:20 UTC
风速10节,风向北转东北
温度 14°C
湿度 88%
气压 1005 hPa
能见度10公里或以上

METAR: EGJJ 032220Z AUTO 02010KT 9999 NCD 14/12 Q1005

时间: 00:06 (23:06 UTC)

预报

该预报发布于3小时和5分钟前的20:01 UTC
预报有效从03日的 21点(UTC)到 04日的 06点(UTC)
风速14节,风向北转东北
能见度10公里或以上
少量云层高于4500英尺
几率 30% :
短暂存在
从 03日的 21点(UTC)到 04日的 00点(UTC)
能見度: 8000
多云层高于4500英尺, 积雨云.
阵雨
短暂存在
从 04日的 00点(UTC)到 04日的 06点(UTC)
能見度: 6000
多云层高于1000英尺
小雨
几率 30% :
短暂存在
从 04日的 01点(UTC)到 04日的 04点(UTC)
能見度: 3000
多云层高于500英尺

TAF: EGJJ 032001Z 0321/0406 03014KT 9999 FEW045 PROB30 TEMPO 0321/0400 8000 SHRA BKN045CB TEMPO 0400/0406 6000 -RA BKN010 PROB30 TEMPO 0401/0404 3000 RA BKN005

超过4000个机场的气象观测和天气预报(METAR&TAF报告)。

可查询的气象台以黄色和红色小点在地图上表示。

将鼠标移到小点上方,可查看气象台名称。

然后点击查看天气观测和预报。

如需切换地图:点击带黑十字的绿色按钮放大地图;点击带横线的绿色按钮缩小地图;或者点击绿色箭头查看邻近地区的地图。


METAR-TAF: